Paint Rock, North Carolina
Current Conditions -  °F | °C
As of 11:54 AM on Thursday 27 Nov 2014 (Local Time) from KAVL Reporting Station
Overcast Overcast  
Wind Chill: 30°   Ceiling: 3700
Heat Index: 39°   Visibility: 10mi
Dew Point: 30°   Wind: 17mph
Humidity: 70%   Direction: 340°NNW
Pressure: 30.15"   Gusts: 26mph
Location:  35.8037°N, 82.868°W
Report Text: KAVL 271654Z 34015G23KT 10SM FEW022 BKN037 OVC046 04/M01 A3015 RMK AO2 RAB21E51 SLP214 P0000 T00391011
Loading
Personal Weather Stations






























Interactive Weather Map New forecast layout! Learn more

10-Day Weather Forecast

Advertisements
Track Severe Weather on mobile